sensor_id;sensor_type;location;lat;lon;timestamp;temperature;humidity
12817;DHT22;6473;51.552;6.716;2022-10-03T00:01:54;9.40;99.90
12817;DHT22;6473;51.552;6.716;2022-10-03T00:04:41;9.40;99.90
12817;DHT22;6473;51.552;6.716;2022-10-03T00:07:19;9.40;99.90
12817;DHT22;6473;51.552;6.716;2022-10-03T00:09:59;9.40;99.90
12817;DHT22;6473;51.552;6.716;2022-10-03T00:12:39;9.40;99.90
12817;DHT22;6473;51.552;6.716;2022-10-03T00:15:17;9.30;99.90
12817;DHT22;6473;51.552;6.716;2022-10-03T00:17:59;9.40;99.90
12817;DHT22;6473;51.552;6.716;2022-10-03T00:20:39;9.30;99.90
12817;DHT22;6473;51.552;6.716;2022-10-03T00:23:15;9.30;99.90
12817;DHT22;6473;51.552;6.716;2022-10-03T00:25:48;9.40;99.90
12817;DHT22;6473;51.552;6.716;2022-10-03T00:28:38;11.40;99.90
12817;DHT22;6473;51.552;6.716;2022-10-03T00:31:12;9.30;99.90
12817;DHT22;6473;51.552;6.716;2022-10-03T00:33:50;9.30;99.90
12817;DHT22;6473;51.552;6.716;2022-10-03T00:36:29;9.30;99.90
12817;DHT22;6473;51.552;6.716;2022-10-03T00:39:17;9.30;99.90
12817;DHT22;6473;51.552;6.716;2022-10-03T00:41:59;9.20;99.90
12817;DHT22;6473;51.552;6.716;2022-10-03T00:44:59;9.20;99.90
12817;DHT22;6473;51.552;6.716;2022-10-03T00:48:01;9.20;99.90
12817;DHT22;6473;51.552;6.716;2022-10-03T00:50:52;9.20;99.90
12817;DHT22;6473;51.552;6.716;2022-10-03T00:53:43;9.20;99.90
12817;DHT22;6473;51.552;6.716;2022-10-03T00:56:34;9.20;99.90
12817;DHT22;6473;51.552;6.716;2022-10-03T00:59:17;9.10;99.90
12817;DHT22;6473;51.552;6.716;2022-10-03T01:01:48;9.10;99.90
12817;DHT22;6473;51.552;6.716;2022-10-03T01:04:30;9.00;99.90
12817;DHT22;6473;51.552;6.716;2022-10-03T01:07:18;9.10;99.90
12817;DHT22;6473;51.552;6.716;2022-10-03T01:10:00;9.10;99.90
12817;DHT22;6473;51.552;6.716;2022-10-03T01:12:53;9.10;99.90
12817;DHT22;6473;51.552;6.716;2022-10-03T01:15:29;9.00;99.90
12817;DHT22;6473;51.552;6.716;2022-10-03T01:18:12;9.60;99.90
12817;DHT22;6473;51.552;6.716;2022-10-03T01:20:50;9.10;99.90
12817;DHT22;6473;51.552;6.716;2022-10-03T01:26:51;9.00;99.90
12817;DHT22;6473;51.552;6.716;2022-10-03T01:29:24;9.00;99.90
12817;DHT22;6473;51.552;6.716;2022-10-03T01:32:13;9.00;99.90
12817;DHT22;6473;51.552;6.716;2022-10-03T01:34:46;9.00;99.90
12817;DHT22;6473;51.552;6.716;2022-10-03T01:37:22;9.10;99.90
12817;DHT22;6473;51.552;6.716;2022-10-03T01:39:56;11.30;99.90
12817;DHT22;6473;51.552;6.716;2022-10-03T01:42:36;8.90;99.90
12817;DHT22;6473;51.552;6.716;2022-10-03T01:48:24;8.80;99.90
12817;DHT22;6473;51.552;6.716;2022-10-03T01:51:00;8.90;99.90
12817;DHT22;6473;51.552;6.716;2022-10-03T01:53:36;8.80;99.90
12817;DHT22;6473;51.552;6.716;2022-10-03T01:56:09;8.80;99.90
12817;DHT22;6473;51.552;6.716;2022-10-03T01:58:46;8.80;99.90
12817;DHT22;6473;51.552;6.716;2022-10-03T02:01:20;8.80;99.90
12817;DHT22;6473;51.552;6.716;2022-10-03T02:03:54;8.70;99.90
12817;DHT22;6473;51.552;6.716;2022-10-03T02:06:27;8.70;99.90
12817;DHT22;6473;51.552;6.716;2022-10-03T02:09:05;8.80;99.90
12817;DHT22;6473;51.552;6.716;2022-10-03T02:11:37;9.90;99.90
12817;DHT22;6473;51.552;6.716;2022-10-03T02:14:14;8.90;99.90
12817;DHT22;6473;51.552;6.716;2022-10-03T02:16:54;8.70;99.90
12817;DHT22;6473;51.552;6.716;2022-10-03T02:19:28;8.70;99.90
12817;DHT22;6473;51.552;6.716;2022-10-03T02:21:57;8.70;99.90
12817;DHT22;6473;51.552;6.716;2022-10-03T02:24:42;8.70;99.90
12817;DHT22;6473;51.552;6.716;2022-10-03T02:27:47;8.70;99.90
12817;DHT22;6473;51.552;6.716;2022-10-03T02:30:20;8.60;99.90
12817;DHT22;6473;51.552;6.716;2022-10-03T02:33:30;8.70;99.90
12817;DHT22;6473;51.552;6.716;2022-10-03T02:36:40;8.60;99.90
12817;DHT22;6473;51.552;6.716;2022-10-03T02:42:36;8.50;99.90
12817;DHT22;6473;51.552;6.716;2022-10-03T02:48:31;8.50;99.90
12817;DHT22;6473;51.552;6.716;2022-10-03T02:51:46;8.50;99.90
12817;DHT22;6473;51.552;6.716;2022-10-03T02:57:48;8.50;99.90
12817;DHT22;6473;51.552;6.716;2022-10-03T03:00:25;8.50;99.90
12817;DHT22;6473;51.552;6.716;2022-10-03T03:03:23;8.40;99.90
12817;DHT22;6473;51.552;6.716;2022-10-03T03:09:19;8.40;99.90
12817;DHT22;6473;51.552;6.716;2022-10-03T03:12:15;8.40;99.90
12817;DHT22;6473;51.552;6.716;2022-10-03T03:15:08;8.30;99.90
12817;DHT22;6473;51.552;6.716;2022-10-03T03:17:47;8.30;99.90
12817;DHT22;6473;51.552;6.716;2022-10-03T03:20:49;8.30;99.90
12817;DHT22;6473;51.552;6.716;2022-10-03T03:29:42;8.20;99.90
12817;DHT22;6473;51.552;6.716;2022-10-03T03:32:23;8.20;99.90
12817;DHT22;6473;51.552;6.716;2022-10-03T03:34:58;8.20;99.90
12817;DHT22;6473;51.552;6.716;2022-10-03T03:37:34;8.20;99.90
12817;DHT22;6473;51.552;6.716;2022-10-03T03:40:13;8.30;99.90
12817;DHT22;6473;51.552;6.716;2022-10-03T03:43:01;8.20;99.90
12817;DHT22;6473;51.552;6.716;2022-10-03T03:45:41;8.20;99.90
12817;DHT22;6473;51.552;6.716;2022-10-03T03:48:32;8.20;99.90
12817;DHT22;6473;51.552;6.716;2022-10-03T03:51:14;8.10;99.90
12817;DHT22;6473;51.552;6.716;2022-10-03T03:54:26;8.10;99.90
12817;DHT22;6473;51.552;6.716;2022-10-03T03:57:10;8.10;99.90
12817;DHT22;6473;51.552;6.716;2022-10-03T04:00:02;8.20;99.90
12817;DHT22;6473;51.552;6.716;2022-10-03T04:02:42;8.10;99.90
12817;DHT22;6473;51.552;6.716;2022-10-03T04:05:26;8.00;99.90
12817;DHT22;6473;51.552;6.716;2022-10-03T04:08:05;8.00;99.90
12817;DHT22;6473;51.552;6.716;2022-10-03T04:10:46;8.00;99.90
12817;DHT22;6473;51.552;6.716;2022-10-03T04:17:41;8.00;99.90
12817;DHT22;6473;51.552;6.716;2022-10-03T04:24:51;8.00;99.90
12817;DHT22;6473;51.552;6.716;2022-10-03T04:28:29;8.00;99.90
12817;DHT22;6473;51.552;6.716;2022-10-03T04:31:50;8.00;99.90
12817;DHT22;6473;51.552;6.716;2022-10-03T04:34:37;8.00;99.90
12817;DHT22;6473;51.552;6.716;2022-10-03T04:37:48;8.00;99.90
12817;DHT22;6473;51.552;6.716;2022-10-03T04:40:26;8.00;99.90
12817;DHT22;6473;51.552;6.716;2022-10-03T04:43:40;8.00;99.90
12817;DHT22;6473;51.552;6.716;2022-10-03T04:46:23;8.00;99.90
12817;DHT22;6473;51.552;6.716;2022-10-03T04:49:38;7.90;99.90
12817;DHT22;6473;51.552;6.716;2022-10-03T04:52:51;7.90;99.90
12817;DHT22;6473;51.552;6.716;2022-10-03T04:55:28;7.90;99.90
12817;DHT22;6473;51.552;6.716;2022-10-03T04:58:37;7.80;99.90
12817;DHT22;6473;51.552;6.716;2022-10-03T05:08:56;8.00;99.90
12817;DHT22;6473;51.552;6.716;2022-10-03T05:12:30;8.00;99.90
12817;DHT22;6473;51.552;6.716;2022-10-03T05:15:13;8.10;99.90
12817;DHT22;6473;51.552;6.716;2022-10-03T05:17:47;8.10;99.90
12817;DHT22;6473;51.552;6.716;2022-10-03T05:20:51;8.10;99.90
12817;DHT22;6473;51.552;6.716;2022-10-03T05:27:30;8.10;99.90
12817;DHT22;6473;51.552;6.716;2022-10-03T05:31:05;8.20;99.90
12817;DHT22;6473;51.552;6.716;2022-10-03T05:33:44;8.30;99.90
12817;DHT22;6473;51.552;6.716;2022-10-03T05:36:19;8.30;99.90
12817;DHT22;6473;51.552;6.716;2022-10-03T05:39:18;8.30;99.90
12817;DHT22;6473;51.552;6.716;2022-10-03T05:41:51;8.40;99.90
12817;DHT22;6473;51.552;6.716;2022-10-03T05:45:04;8.50;99.90
12817;DHT22;6473;51.552;6.716;2022-10-03T05:48:59;8.50;99.90
12817;DHT22;6473;51.552;6.716;2022-10-03T06:11:45;8.40;99.90
12817;DHT22;6473;51.552;6.716;2022-10-03T06:15:28;8.30;99.90
12817;DHT22;6473;51.552;6.716;2022-10-03T06:19:14;8.30;99.90
12817;DHT22;6473;51.552;6.716;2022-10-03T06:27:03;8.40;99.90
12817;DHT22;6473;51.552;6.716;2022-10-03T06:30:21;8.50;99.90
12817;DHT22;6473;51.552;6.716;2022-10-03T06:49:24;9.20;99.90
12817;DHT22;6473;51.552;6.716;2022-10-03T06:53:14;9.30;99.90
12817;DHT22;6473;51.552;6.716;2022-10-03T06:59:44;9.70;99.90
12817;DHT22;6473;51.552;6.716;2022-10-03T07:10:20;9.90;99.90
12817;DHT22;6473;51.552;6.716;2022-10-03T07:13:02;10.00;99.90
12817;DHT22;6473;51.552;6.716;2022-10-03T07:19:09;10.00;99.90
12817;DHT22;6473;51.552;6.716;2022-10-03T07:22:08;10.20;99.90
12817;DHT22;6473;51.552;6.716;2022-10-03T07:28:01;10.80;99.90
12817;DHT22;6473;51.552;6.716;2022-10-03T07:30:47;11.10;99.90
12817;DHT22;6473;51.552;6.716;2022-10-03T07:34:00;11.30;99.90
12817;DHT22;6473;51.552;6.716;2022-10-03T07:36:33;11.40;99.90
12817;DHT22;6473;51.552;6.716;2022-10-03T07:45:31;12.40;99.90
12817;DHT22;6473;51.552;6.716;2022-10-03T07:48:18;12.70;99.90
12817;DHT22;6473;51.552;6.716;2022-10-03T07:51:11;12.80;99.90
12817;DHT22;6473;51.552;6.716;2022-10-03T07:57:12;12.80;1.00
12817;DHT22;6473;51.552;6.716;2022-10-03T08:00:07;13.30;1.00
12817;DHT22;6473;51.552;6.716;2022-10-03T08:03:14;13.70;99.90
12817;DHT22;6473;51.552;6.716;2022-10-03T08:06:14;14.40;99.90
12817;DHT22;6473;51.552;6.716;2022-10-03T08:12:24;15.30;1.00
12817;DHT22;6473;51.552;6.716;2022-10-03T08:15:04;15.60;1.00
12817;DHT22;6473;51.552;6.716;2022-10-03T08:18:03;16.00;1.00
12817;DHT22;6473;51.552;6.716;2022-10-03T08:20:51;16.50;1.00
12817;DHT22;6473;51.552;6.716;2022-10-03T08:23:49;16.50;1.00
12817;DHT22;6473;51.552;6.716;2022-10-03T08:26:30;16.60;1.00
12817;DHT22;6473;51.552;6.716;2022-10-03T08:29:17;17.20;1.00
12817;DHT22;6473;51.552;6.716;2022-10-03T08:35:19;16.90;1.00
12817;DHT22;6473;51.552;6.716;2022-10-03T08:38:08;17.40;1.00
12817;DHT22;6473;51.552;6.716;2022-10-03T08:47:02;18.20;1.00
12817;DHT22;6473;51.552;6.716;2022-10-03T08:50:04;18.10;1.00
12817;DHT22;6473;51.552;6.716;2022-10-03T08:52:40;18.60;1.00
12817;DHT22;6473;51.552;6.716;2022-10-03T08:55:44;18.50;1.00
12817;DHT22;6473;51.552;6.716;2022-10-03T08:58:46;18.60;1.00
12817;DHT22;6473;51.552;6.716;2022-10-03T09:01:21;19.20;1.00
12817;DHT22;6473;51.552;6.716;2022-10-03T09:07:15;19.80;1.00
12817;DHT22;6473;51.552;6.716;2022-10-03T09:13:16;19.60;1.00
12817;DHT22;6473;51.552;6.716;2022-10-03T09:16:07;18.80;1.00
12817;DHT22;6473;51.552;6.716;2022-10-03T09:19:06;18.40;1.00
12817;DHT22;6473;51.552;6.716;2022-10-03T09:22:01;18.30;1.00
12817;DHT22;6473;51.552;6.716;2022-10-03T09:27:46;18.80;1.00
12817;DHT22;6473;51.552;6.716;2022-10-03T09:30:23;18.80;1.00
12817;DHT22;6473;51.552;6.716;2022-10-03T09:36:25;19.40;1.00
12817;DHT22;6473;51.552;6.716;2022-10-03T09:42:28;19.50;1.00
12817;DHT22;6473;51.552;6.716;2022-10-03T09:48:12;19.60;1.00
12817;DHT22;6473;51.552;6.716;2022-10-03T09:51:06;19.70;1.00
12817;DHT22;6473;51.552;6.716;2022-10-03T09:54:02;23.70;1.00
12817;DHT22;6473;51.552;6.716;2022-10-03T10:00:18;20.40;1.00
12817;DHT22;6473;51.552;6.716;2022-10-03T10:03:13;20.50;1.00
12817;DHT22;6473;51.552;6.716;2022-10-03T10:06:21;20.40;1.00
12817;DHT22;6473;51.552;6.716;2022-10-03T10:09:31;20.30;1.00
12817;DHT22;6473;51.552;6.716;2022-10-03T10:12:35;20.40;1.00
12817;DHT22;6473;51.552;6.716;2022-10-03T10:18:29;20.80;1.00
12817;DHT22;6473;51.552;6.716;2022-10-03T10:27:58;21.30;1.00
12817;DHT22;6473;51.552;6.716;2022-10-03T10:30:45;21.00;1.00
12817;DHT22;6473;51.552;6.716;2022-10-03T10:36:48;20.40;1.00
12817;DHT22;6473;51.552;6.716;2022-10-03T10:39:52;20.50;1.00
12817;DHT22;6473;51.552;6.716;2022-10-03T10:46:02;20.60;1.00
12817;DHT22;6473;51.552;6.716;2022-10-03T10:48:59;20.10;1.00
12817;DHT22;6473;51.552;6.716;2022-10-03T11:08:07;22.10;1.00
12817;DHT22;6473;51.552;6.716;2022-10-03T11:10:55;22.20;1.00
12817;DHT22;6473;51.552;6.716;2022-10-03T11:13:56;22.60;1.00
12817;DHT22;6473;51.552;6.716;2022-10-03T11:35:43;22.20;1.00
12817;DHT22;6473;51.552;6.716;2022-10-03T11:38:20;22.20;1.00
12817;DHT22;6473;51.552;6.716;2022-10-03T11:40:57;21.90;1.00
12817;DHT22;6473;51.552;6.716;2022-10-03T11:43:50;21.80;1.00
12817;DHT22;6473;51.552;6.716;2022-10-03T11:46:40;21.60;1.00
12817;DHT22;6473;51.552;6.716;2022-10-03T11:49:25;21.60;1.00
12817;DHT22;6473;51.552;6.716;2022-10-03T11:52:06;20.60;1.00
12817;DHT22;6473;51.552;6.716;2022-10-03T11:54:36;19.20;1.00
12817;DHT22;6473;51.552;6.716;2022-10-03T11:57:08;21.40;1.00
12817;DHT22;6473;51.552;6.716;2022-10-03T11:59:53;21.90;1.00
12817;DHT22;6473;51.552;6.716;2022-10-03T12:02:42;22.40;1.00
12817;DHT22;6473;51.552;6.716;2022-10-03T12:05:14;23.50;1.00
12817;DHT22;6473;51.552;6.716;2022-10-03T12:07:50;24.80;1.00
12817;DHT22;6473;51.552;6.716;2022-10-03T12:10:46;24.80;1.00
12817;DHT22;6473;51.552;6.716;2022-10-03T12:13:19;24.70;1.00
12817;DHT22;6473;51.552;6.716;2022-10-03T12:15:50;25.30;1.00
12817;DHT22;6473;51.552;6.716;2022-10-03T12:18:25;26.00;1.00
12817;DHT22;6473;51.552;6.716;2022-10-03T12:21:05;26.70;1.00
12817;DHT22;6473;51.552;6.716;2022-10-03T12:23:53;27.10;1.00
12817;DHT22;6473;51.552;6.716;2022-10-03T12:26:30;27.00;1.00
12817;DHT22;6473;51.552;6.716;2022-10-03T12:28:59;27.10;1.00
12817;DHT22;6473;51.552;6.716;2022-10-03T12:31:31;28.20;1.00
12817;DHT22;6473;51.552;6.716;2022-10-03T12:34:16;29.20;1.00
12817;DHT22;6473;51.552;6.716;2022-10-03T12:36:50;29.00;1.00
12817;DHT22;6473;51.552;6.716;2022-10-03T12:39:30;29.30;1.00
12817;DHT22;6473;51.552;6.716;2022-10-03T12:42:13;28.70;1.00
12817;DHT22;6473;51.552;6.716;2022-10-03T12:44:50;27.70;1.00
12817;DHT22;6473;51.552;6.716;2022-10-03T12:47:30;27.30;1.00
12817;DHT22;6473;51.552;6.716;2022-10-03T12:50:07;27.50;1.00
12817;DHT22;6473;51.552;6.716;2022-10-03T12:52:41;26.40;1.00
12817;DHT22;6473;51.552;6.716;2022-10-03T12:55:24;25.60;1.00
12817;DHT22;6473;51.552;6.716;2022-10-03T12:58:02;25.20;1.00
12817;DHT22;6473;51.552;6.716;2022-10-03T13:00:35;25.90;1.00
12817;DHT22;6473;51.552;6.716;2022-10-03T13:03:19;26.20;1.00
12817;DHT22;6473;51.552;6.716;2022-10-03T13:06:18;26.90;1.00
12817;DHT22;6473;51.552;6.716;2022-10-03T13:08:57;26.50;1.00
12817;DHT22;6473;51.552;6.716;2022-10-03T13:11:37;25.40;1.00
12817;DHT22;6473;51.552;6.716;2022-10-03T13:14:21;24.40;1.00
12817;DHT22;6473;51.552;6.716;2022-10-03T13:16:59;23.50;1.00
12817;DHT22;6473;51.552;6.716;2022-10-03T13:19:31;23.00;1.00
12817;DHT22;6473;51.552;6.716;2022-10-03T13:22:03;22.60;1.00
12817;DHT22;6473;51.552;6.716;2022-10-03T13:24:38;22.10;1.00
12817;DHT22;6473;51.552;6.716;2022-10-03T13:27:22;22.00;1.00
12817;DHT22;6473;51.552;6.716;2022-10-03T13:30:02;21.90;1.00
12817;DHT22;6473;51.552;6.716;2022-10-03T13:32:33;23.10;1.00
12817;DHT22;6473;51.552;6.716;2022-10-03T13:35:16;28.50;1.00
12817;DHT22;6473;51.552;6.716;2022-10-03T13:41:22;27.60;1.00
12817;DHT22;6473;51.552;6.716;2022-10-03T13:43:58;27.40;1.00
12817;DHT22;6473;51.552;6.716;2022-10-03T13:46:30;27.40;1.00
12817;DHT22;6473;51.552;6.716;2022-10-03T13:49:01;27.60;1.00
12817;DHT22;6473;51.552;6.716;2022-10-03T13:51:40;28.60;1.00
12817;DHT22;6473;51.552;6.716;2022-10-03T13:54:16;29.00;1.00
12817;DHT22;6473;51.552;6.716;2022-10-03T13:56:53;28.10;1.00
12817;DHT22;6473;51.552;6.716;2022-10-03T13:59:42;28.10;1.00
12817;DHT22;6473;51.552;6.716;2022-10-03T14:05:48;25.40;1.00
12817;DHT22;6473;51.552;6.716;2022-10-03T14:08:30;24.10;1.00
12817;DHT22;6473;51.552;6.716;2022-10-03T14:11:16;23.60;1.00
12817;DHT22;6473;51.552;6.716;2022-10-03T14:14:01;22.90;1.00
12817;DHT22;6473;51.552;6.716;2022-10-03T14:16:38;22.30;1.00
12817;DHT22;6473;51.552;6.716;2022-10-03T14:19:13;21.40;1.00
12817;DHT22;6473;51.552;6.716;2022-10-03T14:21:54;20.70;1.00
12817;DHT22;6473;51.552;6.716;2022-10-03T14:24:33;20.20;1.00
12817;DHT22;6473;51.552;6.716;2022-10-03T14:27:14;19.70;1.00
12817;DHT22;6473;51.552;6.716;2022-10-03T14:29:52;19.50;1.00
12817;DHT22;6473;51.552;6.716;2022-10-03T14:32:28;19.10;1.00
12817;DHT22;6473;51.552;6.716;2022-10-03T14:35:03;18.80;1.00
12817;DHT22;6473;51.552;6.716;2022-10-03T14:37:39;18.90;1.00
12817;DHT22;6473;51.552;6.716;2022-10-03T14:40:15;19.10;1.00
12817;DHT22;6473;51.552;6.716;2022-10-03T14:42:54;19.20;1.00
12817;DHT22;6473;51.552;6.716;2022-10-03T14:45:24;15.50;1.00
12817;DHT22;6473;51.552;6.716;2022-10-03T14:47:58;18.90;1.00
12817;DHT22;6473;51.552;6.716;2022-10-03T14:50:28;18.80;1.00
12817;DHT22;6473;51.552;6.716;2022-10-03T14:52:58;18.70;1.00
12817;DHT22;6473;51.552;6.716;2022-10-03T14:55:31;18.70;1.00
12817;DHT22;6473;51.552;6.716;2022-10-03T14:58:01;18.50;1.00
12817;DHT22;6473;51.552;6.716;2022-10-03T15:00:37;18.50;1.00
12817;DHT22;6473;51.552;6.716;2022-10-03T15:03:29;18.30;1.00
12817;DHT22;6473;51.552;6.716;2022-10-03T15:06:01;18.20;1.00
12817;DHT22;6473;51.552;6.716;2022-10-03T15:08:33;18.20;1.00
12817;DHT22;6473;51.552;6.716;2022-10-03T15:11:05;18.10;1.00
12817;DHT22;6473;51.552;6.716;2022-10-03T15:13:37;18.10;1.00
12817;DHT22;6473;51.552;6.716;2022-10-03T15:16:07;18.10;1.00
12817;DHT22;6473;51.552;6.716;2022-10-03T15:18:37;18.20;1.00
12817;DHT22;6473;51.552;6.716;2022-10-03T15:21:05;18.10;1.00
12817;DHT22;6473;51.552;6.716;2022-10-03T15:23:40;18.10;1.00
12817;DHT22;6473;51.552;6.716;2022-10-03T15:26:13;18.10;1.00
12817;DHT22;6473;51.552;6.716;2022-10-03T15:28:45;18.20;1.00
12817;DHT22;6473;51.552;6.716;2022-10-03T15:31:20;18.10;1.00
12817;DHT22;6473;51.552;6.716;2022-10-03T15:33:50;18.10;1.00
12817;DHT22;6473;51.552;6.716;2022-10-03T15:36:22;18.10;1.00
12817;DHT22;6473;51.552;6.716;2022-10-03T15:38:52;18.20;1.00
12817;DHT22;6473;51.552;6.716;2022-10-03T15:41:26;18.20;1.00
12817;DHT22;6473;51.552;6.716;2022-10-03T15:43:56;18.20;1.00
12817;DHT22;6473;51.552;6.716;2022-10-03T15:46:31;18.20;1.00
12817;DHT22;6473;51.552;6.716;2022-10-03T15:49:05;18.10;1.00
12817;DHT22;6473;51.552;6.716;2022-10-03T15:51:34;18.10;1.00
12817;DHT22;6473;51.552;6.716;2022-10-03T15:54:05;18.00;1.00
12817;DHT22;6473;51.552;6.716;2022-10-03T15:56:38;17.80;1.00
12817;DHT22;6473;51.552;6.716;2022-10-03T15:59:07;17.80;1.00
12817;DHT22;6473;51.552;6.716;2022-10-03T16:01:39;17.80;1.00
12817;DHT22;6473;51.552;6.716;2022-10-03T16:04:16;17.80;1.00
12817;DHT22;6473;51.552;6.716;2022-10-03T16:06:47;17.60;1.00
12817;DHT22;6473;51.552;6.716;2022-10-03T16:09:25;17.50;1.00
12817;DHT22;6473;51.552;6.716;2022-10-03T16:12:00;17.50;1.00
12817;DHT22;6473;51.552;6.716;2022-10-03T16:14:39;17.40;1.00
12817;DHT22;6473;51.552;6.716;2022-10-03T16:17:15;17.40;1.00
12817;DHT22;6473;51.552;6.716;2022-10-03T16:19:51;17.30;1.00
12817;DHT22;6473;51.552;6.716;2022-10-03T16:22:23;17.30;1.00
12817;DHT22;6473;51.552;6.716;2022-10-03T16:25:01;17.30;1.00
12817;DHT22;6473;51.552;6.716;2022-10-03T16:27:32;17.30;1.00
12817;DHT22;6473;51.552;6.716;2022-10-03T16:30:15;17.00;1.00
12817;DHT22;6473;51.552;6.716;2022-10-03T16:32:57;17.10;1.00
12817;DHT22;6473;51.552;6.716;2022-10-03T16:35:41;17.00;1.00
12817;DHT22;6473;51.552;6.716;2022-10-03T16:38:18;17.00;1.00
12817;DHT22;6473;51.552;6.716;2022-10-03T16:40:55;17.00;1.00
12817;DHT22;6473;51.552;6.716;2022-10-03T16:43:23;16.90;1.00
12817;DHT22;6473;51.552;6.716;2022-10-03T16:45:51;16.80;1.00
12817;DHT22;6473;51.552;6.716;2022-10-03T16:48:21;16.80;1.00
12817;DHT22;6473;51.552;6.716;2022-10-03T16:51:16;16.80;1.00
12817;DHT22;6473;51.552;6.716;2022-10-03T16:53:46;16.70;1.00
12817;DHT22;6473;51.552;6.716;2022-10-03T16:56:15;16.70;1.00
12817;DHT22;6473;51.552;6.716;2022-10-03T16:58:47;16.60;1.00
12817;DHT22;6473;51.552;6.716;2022-10-03T17:01:26;16.50;1.00
12817;DHT22;6473;51.552;6.716;2022-10-03T17:04:06;16.40;1.00
12817;DHT22;6473;51.552;6.716;2022-10-03T17:06:38;17.40;1.00
12817;DHT22;6473;51.552;6.716;2022-10-03T17:09:13;16.00;1.00
12817;DHT22;6473;51.552;6.716;2022-10-03T17:11:46;16.00;1.00
12817;DHT22;6473;51.552;6.716;2022-10-03T17:14:18;15.70;1.00
12817;DHT22;6473;51.552;6.716;2022-10-03T17:16:50;15.80;1.00
12817;DHT22;6473;51.552;6.716;2022-10-03T17:19:29;15.60;1.00
12817;DHT22;6473;51.552;6.716;2022-10-03T17:22:06;15.40;1.00
12817;DHT22;6473;51.552;6.716;2022-10-03T17:24:44;15.40;1.00
12817;DHT22;6473;51.552;6.716;2022-10-03T17:27:18;15.20;1.00
12817;DHT22;6473;51.552;6.716;2022-10-03T17:29:51;15.10;1.00
12817;DHT22;6473;51.552;6.716;2022-10-03T17:32:26;15.00;1.00
12817;DHT22;6473;51.552;6.716;2022-10-03T17:34:59;14.90;1.00
12817;DHT22;6473;51.552;6.716;2022-10-03T17:37:57;14.80;1.00
12817;DHT22;6473;51.552;6.716;2022-10-03T17:40:47;14.70;1.00
12817;DHT22;6473;51.552;6.716;2022-10-03T17:43:23;14.60;1.00
12817;DHT22;6473;51.552;6.716;2022-10-03T17:46:02;14.50;1.00
12817;DHT22;6473;51.552;6.716;2022-10-03T17:48:37;14.40;1.00
12817;DHT22;6473;51.552;6.716;2022-10-03T17:51:33;14.40;1.00
12817;DHT22;6473;51.552;6.716;2022-10-03T17:54:09;14.30;1.00
12817;DHT22;6473;51.552;6.716;2022-10-03T17:56:42;14.20;1.00
12817;DHT22;6473;51.552;6.716;2022-10-03T17:59:17;14.10;1.00
12817;DHT22;6473;51.552;6.716;2022-10-03T18:01:50;14.00;1.00
12817;DHT22;6473;51.552;6.716;2022-10-03T18:04:20;13.90;1.00
12817;DHT22;6473;51.552;6.716;2022-10-03T18:06:57;13.80;1.00
12817;DHT22;6473;51.552;6.716;2022-10-03T18:09:30;13.70;1.00
12817;DHT22;6473;51.552;6.716;2022-10-03T18:12:18;13.70;1.00
12817;DHT22;6473;51.552;6.716;2022-10-03T18:18:04;13.80;1.00
12817;DHT22;6473;51.552;6.716;2022-10-03T18:20:43;13.70;1.00
12817;DHT22;6473;51.552;6.716;2022-10-03T18:23:20;13.70;1.00
12817;DHT22;6473;51.552;6.716;2022-10-03T18:25:54;13.60;1.00
12817;DHT22;6473;51.552;6.716;2022-10-03T18:28:28;13.50;1.00
12817;DHT22;6473;51.552;6.716;2022-10-03T18:30:59;13.50;1.00
12817;DHT22;6473;51.552;6.716;2022-10-03T18:33:31;13.40;1.00
12817;DHT22;6473;51.552;6.716;2022-10-03T18:36:06;13.40;1.00
12817;DHT22;6473;51.552;6.716;2022-10-03T18:41:05;13.30;1.00
12817;DHT22;6473;51.552;6.716;2022-10-03T18:43:37;13.20;1.00
12817;DHT22;6473;51.552;6.716;2022-10-03T18:46:16;13.20;6.70
12817;DHT22;6473;51.552;6.716;2022-10-03T18:49:01;13.10;44.40
12817;DHT22;6473;51.552;6.716;2022-10-03T18:51:34;13.10;26.20
12817;DHT22;6473;51.552;6.716;2022-10-03T18:54:05;13.10;1.00
12817;DHT22;6473;51.552;6.716;2022-10-03T18:56:37;13.20;1.00
12817;DHT22;6473;51.552;6.716;2022-10-03T18:59:20;13.20;1.00
12817;DHT22;6473;51.552;6.716;2022-10-03T19:01:52;13.30;1.00
12817;DHT22;6473;51.552;6.716;2022-10-03T19:04:35;13.30;1.00
12817;DHT22;6473;51.552;6.716;2022-10-03T19:07:10;13.30;1.00
12817;DHT22;6473;51.552;6.716;2022-10-03T19:09:59;10.30;1.00
12817;DHT22;6473;51.552;6.716;2022-10-03T19:12:33;13.30;1.00
12817;DHT22;6473;51.552;6.716;2022-10-03T19:15:12;13.20;1.00
12817;DHT22;6473;51.552;6.716;2022-10-03T19:17:49;13.10;1.00
12817;DHT22;6473;51.552;6.716;2022-10-03T19:20:24;13.00;7.50
12817;DHT22;6473;51.552;6.716;2022-10-03T19:22:58;13.00;1.00
12817;DHT22;6473;51.552;6.716;2022-10-03T19:25:27;12.90;1.00
12817;DHT22;6473;51.552;6.716;2022-10-03T19:27:58;12.80;29.00
12817;DHT22;6473;51.552;6.716;2022-10-03T19:30:29;12.80;51.90
12817;DHT22;6473;51.552;6.716;2022-10-03T19:32:58;12.80;74.60
12817;DHT22;6473;51.552;6.716;2022-10-03T19:35:28;12.80;73.60
12817;DHT22;6473;51.552;6.716;2022-10-03T19:38:00;12.70;41.40
12817;DHT22;6473;51.552;6.716;2022-10-03T19:40:43;12.70;79.80
12817;DHT22;6473;51.552;6.716;2022-10-03T19:43:34;11.80;95.70
12817;DHT22;6473;51.552;6.716;2022-10-03T19:46:19;12.50;99.90
12817;DHT22;6473;51.552;6.716;2022-10-03T19:49:05;12.60;99.90
12817;DHT22;6473;51.552;6.716;2022-10-03T19:51:36;12.50;99.90
12817;DHT22;6473;51.552;6.716;2022-10-03T19:54:11;12.50;99.90
12817;DHT22;6473;51.552;6.716;2022-10-03T19:59:15;12.40;99.90
12817;DHT22;6473;51.552;6.716;2022-10-03T20:01:44;12.30;99.90
12817;DHT22;6473;51.552;6.716;2022-10-03T20:04:13;12.20;99.90
12817;DHT22;6473;51.552;6.716;2022-10-03T20:06:43;12.10;99.90
12817;DHT22;6473;51.552;6.716;2022-10-03T20:09:19;12.20;99.90
12817;DHT22;6473;51.552;6.716;2022-10-03T20:11:49;12.10;99.90
12817;DHT22;6473;51.552;6.716;2022-10-03T20:14:21;12.00;99.90
12817;DHT22;6473;51.552;6.716;2022-10-03T20:16:53;12.00;99.90
12817;DHT22;6473;51.552;6.716;2022-10-03T20:19:23;12.00;99.90
12817;DHT22;6473;51.552;6.716;2022-10-03T20:21:51;11.90;99.90
12817;DHT22;6473;51.552;6.716;2022-10-03T20:24:27;11.70;1.00
12817;DHT22;6473;51.552;6.716;2022-10-03T20:27:07;11.70;1.00
12817;DHT22;6473;51.552;6.716;2022-10-03T20:29:41;11.70;1.00
12817;DHT22;6473;51.552;6.716;2022-10-03T20:32:14;11.70;1.00
12817;DHT22;6473;51.552;6.716;2022-10-03T20:34:45;11.70;1.00
12817;DHT22;6473;51.552;6.716;2022-10-03T20:37:37;11.50;1.00
12817;DHT22;6473;51.552;6.716;2022-10-03T20:40:23;11.40;1.00
12817;DHT22;6473;51.552;6.716;2022-10-03T20:43:01;11.40;99.90
12817;DHT22;6473;51.552;6.716;2022-10-03T20:45:34;11.50;99.90
12817;DHT22;6473;51.552;6.716;2022-10-03T20:48:06;11.50;99.90
12817;DHT22;6473;51.552;6.716;2022-10-03T20:51:02;11.50;1.00
12817;DHT22;6473;51.552;6.716;2022-10-03T20:53:30;11.40;99.90
12817;DHT22;6473;51.552;6.716;2022-10-03T20:56:01;11.40;1.00
12817;DHT22;6473;51.552;6.716;2022-10-03T20:58:55;11.30;1.00
12817;DHT22;6473;51.552;6.716;2022-10-03T21:01:27;11.30;99.90
12817;DHT22;6473;51.552;6.716;2022-10-03T21:04:24;11.30;1.00
12817;DHT22;6473;51.552;6.716;2022-10-03T21:06:55;11.20;99.90
12817;DHT22;6473;51.552;6.716;2022-10-03T21:09:35;11.10;1.00
12817;DHT22;6473;51.552;6.716;2022-10-03T21:12:48;11.30;1.00
12817;DHT22;6473;51.552;6.716;2022-10-03T21:15:32;11.30;1.00